Time;durP1;ratioP1;P1;durP2;ratioP2;P2;SDS_P1;SDS_P2;PMS_P1;PMS_P2;Temp;Humidity;BMP_temperature;BMP_pressure;BME280_temperature;BME280_humidity;BME280_pressure;Samples;Min_cycle;Max_cycle;Signal;HPM_P1;HPM_P2
2022/01/24 00:01:51;;;;;;;;;58.50;41.00;;;;;6.50;63.42;102976.91;5109914;27;45701;-77
2022/01/24 00:04:16;;;;;;;;;48.00;37.25;;;;;6.40;63.55;102964.03;5104588;27;47390;-76
2022/01/24 00:06:41;;;;;;;;;47.25;36.25;;;;;6.45;63.43;102976.63;5110921;27;57891;-77
2022/01/24 00:09:07;;;;;;;;;48.00;36.00;;;;;6.40;63.65;102966.66;5100423;27;45614;-77
2022/01/24 00:11:58;;;;;;;;;50.25;39.00;;;;;6.44;63.80;102979.13;5084530;27;45514;-76
2022/01/24 00:28:06;;;;;;;;;49.25;39.25;;;;;6.38;63.79;102949.88;5108554;27;45448;-77
2022/01/24 00:30:31;;;;;;;;;44.00;33.75;;;;;6.41;63.91;102948.38;5106457;27;60082;-78
2022/01/24 00:32:57;;;;;;;;;37.00;32.50;;;;;6.41;63.83;102948.38;5101550;27;54264;-77
2022/01/24 00:35:22;;;;;;;;;40.00;31.25;;;;;6.41;63.61;102955.34;5111813;27;54318;-79
2022/01/24 00:37:47;;;;;;;;;41.25;35.75;;;;;6.35;63.85;102936.59;5098540;27;56134;-76
2022/01/24 00:40:13;;;;;;;;;35.75;32.25;;;;;6.36;63.92;102947.19;5111383;27;45239;-76
2022/01/24 00:55:16;;;;;;;;;46.75;36.00;;;;;6.30;64.09;102945.06;5107344;27;45381;-76
2022/01/24 00:57:42;;;;;;;;;43.00;33.75;;;;;6.29;64.13;102940.66;5102712;27;59489;-80
2022/01/24 01:00:08;;;;;;;;;45.50;33.00;;;;;6.30;64.09;102939.84;5106360;27;52875;-77
2022/01/24 01:02:33;;;;;;;;;45.25;36.00;;;;;6.30;63.88;102936.31;5100543;27;45559;-76
2022/01/24 01:05:14;;;;;;;;;33.00;29.50;;;;;6.28;63.90;102936.22;5110072;27;46450;-77
2022/01/24 01:08:01;;;;;;;;;42.25;32.00;;;;;6.28;63.90;102924.78;5104330;27;45407;-76
2022/01/24 01:18:39;;;;;;;;;42.50;30.75;;;;;6.20;64.16;102924.31;5117592;27;45368;-79
2022/01/24 01:21:10;;;;;;;;;42.25;34.50;;;;;6.23;64.20;102947.19;5105284;27;45262;-76
2022/01/24 01:23:38;;;;;;;;;45.25;29.25;;;;;6.19;64.11;102933.00;5107215;27;45404;-77
2022/01/24 01:26:08;;;;;;;;;42.25;31.50;;;;;6.22;64.19;102942.78;5105608;27;47370;-76
2022/01/24 01:28:35;;;;;;;;;42.25;34.50;;;;;6.22;64.34;102937.53;5107860;27;45413;-76
2022/01/24 01:31:06;;;;;;;;;43.00;36.00;;;;;6.22;64.27;102927.94;5118210;27;45495;-77
2022/01/24 01:36:18;;;;;;;;;43.50;36.25;;;;;6.20;64.29;102928.66;5109333;27;45586;-76
2022/01/24 01:52:27;;;;;;;;;46.25;36.00;;;;;6.13;64.32;102932.63;5106479;27;45545;-78
2022/01/24 01:55:08;;;;;;;;;45.00;30.75;;;;;6.11;64.31;102931.59;5109206;27;45511;-80
2022/01/24 01:57:34;;;;;;;;;46.00;30.00;;;;;6.10;64.41;102923.66;5109292;27;46755;-76
2022/01/24 01:59:59;;;;;;;;;44.75;37.50;;;;;6.08;64.23;102928.81;5114785;27;58945;-77
2022/01/24 02:02:24;;;;;;;;;47.25;34.50;;;;;6.09;64.04;102942.84;5107311;27;45708;-77
2022/01/24 02:04:50;;;;;;;;;41.00;32.00;;;;;6.06;64.33;102933.03;5105351;27;55615;-78
2022/01/24 02:07:16;;;;;;;;;45.00;36.75;;;;;6.06;64.27;102932.13;5105493;27;64723;-77
2022/01/24 02:09:43;;;;;;;;;48.25;33.25;;;;;6.04;64.21;102935.56;5099547;27;45160;-79
2022/01/24 02:12:09;;;;;;;;;38.50;32.25;;;;;6.02;64.43;102936.31;5112594;27;45562;-77
2022/01/24 02:14:39;;;;;;;;;47.00;35.75;;;;;6.00;64.00;102941.44;5114197;27;45478;-77
2022/01/24 02:17:09;;;;;;;;;38.75;34.00;;;;;5.96;64.28;102925.41;5106048;27;47920;-79
2022/01/24 02:20:07;;;;;;;;;42.00;33.75;;;;;5.97;64.15;102928.13;5109707;27;45407;-77
2022/01/24 02:22:49;;;;;;;;;38.75;31.00;;;;;5.96;64.09;102926.31;5106097;27;47125;-77
2022/01/24 02:25:26;;;;;;;;;38.50;31.75;;;;;5.92;64.25;102921.69;5106118;27;45572;-79
2022/01/24 02:27:59;;;;;;;;;48.00;32.75;;;;;5.89;64.29;102916.22;5105522;27;47706;-79
2022/01/24 02:33:09;;;;;;;;;40.25;33.25;;;;;5.77;64.08;102898.00;5105607;27;45570;-79
2022/01/24 02:35:35;;;;;;;;;36.00;30.50;;;;;5.83;64.16;102914.94;5112021;27;45598;-77
2022/01/24 02:38:04;;;;;;;;;45.25;34.25;;;;;5.81;64.20;102912.22;5114414;27;46512;-76
2022/01/24 02:40:29;;;;;;;;;48.00;33.00;;;;;5.78;64.59;102909.38;5108721;27;45384;-80
2022/01/24 02:48:24;;;;;;;;;38.00;31.50;;;;;5.72;64.46;102904.66;5105482;27;45773;-79
2022/01/24 02:53:25;;;;;;;;;39.75;31.25;;;;;5.67;64.59;102905.19;5103152;27;45538;-77
2022/01/24 02:55:50;;;;;;;;;41.00;27.75;;;;;5.65;64.38;102907.72;5107849;27;45659;-77
2022/01/24 02:58:17;;;;;;;;;45.75;32.75;;;;;5.65;64.42;102912.03;5115889;27;45883;-79
2022/01/24 03:00:42;;;;;;;;;49.50;29.00;;;;;5.59;64.67;102896.81;5105750;27;45566;-77
2022/01/24 03:03:08;;;;;;;;;38.25;30.25;;;;;5.61;64.51;102903.06;5104972;27;45330;-76
2022/01/24 03:05:33;;;;;;;;;40.75;30.00;;;;;5.60;64.72;102901.25;5106996;27;45349;-79
2022/01/24 03:07:59;;;;;;;;;41.25;28.50;;;;;5.50;64.48;102896.22;5105644;27;45623;-76
2022/01/24 03:10:28;;;;;;;;;44.50;29.25;;;;;5.57;64.71;102910.63;5105927;27;45480;-77
2022/01/24 03:15:38;;;;;;;;;38.50;33.25;;;;;5.55;64.72;102907.00;5105340;27;45238;-76
2022/01/24 03:18:04;;;;;;;;;52.75;36.75;;;;;5.50;64.77;102884.03;5099057;27;45535;-76
2022/01/24 03:20:29;;;;;;;;;45.50;33.00;;;;;5.52;64.80;102895.50;5110776;27;45828;-76
2022/01/24 03:22:54;;;;;;;;;35.50;29.25;;;;;5.52;64.99;102886.75;5108556;27;45262;-80
2022/01/24 03:25:20;;;;;;;;;43.75;31.50;;;;;5.50;64.60;102883.13;5108885;27;45212;-76
2022/01/24 03:27:45;;;;;;;;;41.00;29.75;;;;;5.47;65.09;102880.31;5110967;27;61062;-76
2022/01/24 03:30:11;;;;;;;;;41.75;30.25;;;;;5.50;64.89;102877.91;5101653;27;45367;-76
2022/01/24 03:32:37;;;;;;;;;35.50;30.25;;;;;5.47;64.83;102875.97;5101889;27;45371;-79
2022/01/24 03:35:07;;;;;;;;;46.25;32.75;;;;;5.46;64.91;102878.50;5103247;27;45441;-79
2022/01/24 03:37:35;;;;;;;;;35.25;28.25;;;;;5.44;65.00;102881.03;5098650;27;47662;-79
2022/01/24 03:40:01;;;;;;;;;40.00;30.25;;;;;5.45;64.80;102879.31;5100556;27;45461;-79
2022/01/24 03:42:27;;;;;;;;;45.25;31.25;;;;;5.44;64.78;102880.13;5114216;27;45402;-79
2022/01/24 03:44:57;;;;;;;;;40.50;32.75;;;;;5.43;65.06;102870.41;5115786;27;45379;-78
2022/01/24 03:50:00;;;;;;;;;45.00;29.50;;;;;5.41;64.84;102872.06;5101183;27;45507;-79
2022/01/24 03:52:26;;;;;;;;;35.50;29.00;;;;;5.40;64.89;102870.25;5127502;27;45560;-79
2022/01/24 03:54:51;;;;;;;;;37.75;30.00;;;;;5.39;64.83;102882.44;5106484;27;45469;-78
2022/01/24 03:57:18;;;;;;;;;35.50;30.25;;;;;5.37;64.90;102878.78;5110538;27;46260;-79
2022/01/24 03:59:44;;;;;;;;;40.00;31.50;;;;;5.36;65.16;102874.38;5110188;27;45548;-79
2022/01/24 04:02:09;;;;;;;;;47.50;34.50;;;;;5.33;65.41;102860.19;5109295;27;55751;-78
2022/01/24 04:04:35;;;;;;;;;36.75;30.00;;;;;5.34;65.29;102862.91;5113223;27;45297;-79
2022/01/24 04:07:00;;;;;;;;;40.25;33.25;;;;;5.37;65.27;102864.78;5111110;27;62406;-79
2022/01/24 04:09:26;;;;;;;;;38.50;28.25;;;;;5.35;65.01;102854.22;5099588;27;45362;-78
2022/01/24 04:11:54;;;;;;;;;47.00;31.25;;;;;5.37;65.13;102863.06;5108015;27;45700;-79
2022/01/24 04:22:12;;;;;;;;;50.25;31.75;;;;;5.35;65.09;102854.22;5106575;27;45272;-79
2022/01/24 04:24:38;;;;;;;;;43.00;28.50;;;;;5.34;65.66;102857.66;5104997;27;45342;-78
2022/01/24 04:27:04;;;;;;;;;47.50;32.25;;;;;5.34;64.99;102852.41;5102295;27;47411;-79
2022/01/24 04:29:29;;;;;;;;;40.00;29.50;;;;;5.35;65.16;102859.47;5112516;27;45431;-79
2022/01/24 04:31:57;;;;;;;;;38.50;32.25;;;;;5.37;65.22;102855.22;5104240;27;55030;-79
2022/01/24 04:34:23;;;;;;;;;44.25;29.75;;;;;5.38;65.50;102871.84;5102844;27;45630;-78
2022/01/24 04:36:48;;;;;;;;;41.50;30.50;;;;;5.39;65.34;102866.72;5109849;27;61257;-78
2022/01/24 04:39:13;;;;;;;;;38.25;34.25;;;;;5.38;65.25;102861.34;5109332;27;60552;-78
2022/01/24 04:41:43;;;;;;;;;35.75;27.25;;;;;5.39;65.61;102868.44;5101674;27;53565;-79
2022/01/24 04:44:30;;;;;;;;;28.75;22.50;;;;;5.37;65.22;102862.16;5112734;27;45299;-79
2022/01/24 04:47:03;;;;;;;;;40.25;33.25;;;;;5.36;65.42;102877.00;5098652;27;48462;-78
2022/01/24 04:54:51;;;;;;;;;46.25;34.25;;;;;5.33;65.44;102868.03;5108335;27;45362;-79
2022/01/24 04:57:35;;;;;;;;;47.00;34.50;;;;;5.31;65.31;102861.78;5107250;27;47471;-79
2022/01/24 05:00:01;;;;;;;;;41.00;30.00;;;;;5.29;65.40;102866.03;5109263;27;45496;-79
2022/01/24 05:02:26;;;;;;;;;45.50;33.75;;;;;5.28;65.28;102859.88;5103956;27;45356;-79
2022/01/24 05:04:56;;;;;;;;;37.75;31.50;;;;;5.23;65.27;102854.34;5088329;27;45563;-79
2022/01/24 05:07:21;;;;;;;;;39.00;32.25;;;;;5.19;65.39;102857.56;5111842;27;46485;-78
2022/01/24 05:25:42;;;;;;;;;39.25;33.00;;;;;5.17;65.46;102874.00;5107291;27;45522;-79
2022/01/24 05:28:07;;;;;;;;;33.75;28.00;;;;;5.18;65.67;102873.19;5107642;27;63154;-78
2022/01/24 05:30:33;;;;;;;;;38.25;28.75;;;;;5.15;65.70;102866.00;5113970;27;55788;-79
2022/01/24 05:32:58;;;;;;;;;48.50;33.50;;;;;5.18;65.32;102862.72;5097334;27;45947;-78
2022/01/24 05:35:24;;;;;;;;;42.50;30.75;;;;;5.17;65.68;102858.28;5106812;27;45287;-79
2022/01/24 05:37:49;;;;;;;;;46.25;33.25;;;;;5.15;65.61;102858.16;5096273;27;46877;-78
2022/01/24 05:40:15;;;;;;;;;43.50;31.75;;;;;5.15;65.35;102859.88;5105526;27;62293;-79
2022/01/24 05:42:40;;;;;;;;;44.25;37.25;;;;;5.15;65.74;102857.25;5109077;27;45761;-78
2022/01/24 05:45:06;;;;;;;;;32.75;28.50;;;;;5.10;65.46;102851.72;5105793;27;57128;-79
2022/01/24 05:47:31;;;;;;;;;40.50;32.50;;;;;5.14;65.55;102856.34;5108541;27;46630;-79
2022/01/24 05:49:57;;;;;;;;;35.75;25.75;;;;;5.04;65.75;102840.84;5106247;27;45307;-79
2022/01/24 05:52:22;;;;;;;;;39.00;28.00;;;;;5.12;65.48;102854.47;5113485;27;45556;-79
2022/01/24 05:54:48;;;;;;;;;34.50;22.00;;;;;5.13;65.74;102854.53;5099331;27;45234;-79
2022/01/24 05:57:13;;;;;;;;;44.00;30.25;;;;;5.12;65.49;102850.13;5109545;27;56477;-78
2022/01/24 05:59:38;;;;;;;;;36.75;30.00;;;;;5.08;65.41;102835.00;5109236;27;45203;-78
2022/01/24 06:02:04;;;;;;;;;39.00;30.25;;;;;5.11;65.46;102844.75;5109800;27;45211;-78
2022/01/24 06:04:30;;;;;;;;;32.25;27.75;;;;;5.05;65.74;102841.75;5104845;27;45622;-78
2022/01/24 06:06:55;;;;;;;;;37.75;33.25;;;;;5.06;65.57;102847.09;5103479;27;46269;-78
2022/01/24 06:09:20;;;;;;;;;39.50;31.00;;;;;5.09;65.88;102849.00;5108867;27;58480;-79
2022/01/24 06:11:46;;;;;;;;;47.50;34.00;;;;;5.06;65.91;102844.50;5100338;27;45325;-80
2022/01/24 06:14:11;;;;;;;;;41.25;30.00;;;;;5.00;65.97;102833.59;5099678;27;45465;-78
2022/01/24 06:16:37;;;;;;;;;50.75;39.00;;;;;5.07;65.51;102859.38;5106011;27;58858;-77
2022/01/24 06:19:02;;;;;;;;;42.00;33.25;;;;;5.06;65.82;102854.97;5097502;27;45525;-78
2022/01/24 06:21:28;;;;;;;;;38.00;27.75;;;;;5.05;65.88;102863.59;5104560;27;53851;-78
2022/01/24 06:23:53;;;;;;;;;44.00;32.25;;;;;5.05;65.34;102868.84;5105476;27;45289;-78
2022/01/24 06:26:19;;;;;;;;;48.75;36.75;;;;;5.05;65.42;102867.94;5106017;27;64340;-78
2022/01/24 06:28:44;;;;;;;;;32.75;29.50;;;;;5.03;65.69;102870.47;5102061;27;57103;-78
2022/01/24 06:31:09;;;;;;;;;38.25;32.25;;;;;5.02;65.54;102868.66;5107325;27;57431;-79
2022/01/24 06:33:35;;;;;;;;;38.25;31.00;;;;;4.95;65.61;102859.50;5109435;27;50837;-78
2022/01/24 06:36:00;;;;;;;;;33.75;30.00;;;;;4.97;65.82;102863.09;5104353;27;47256;-78
2022/01/24 06:38:26;;;;;;;;;37.00;33.50;;;;;5.02;65.89;102870.38;5104394;27;60087;-78
2022/01/24 06:40:51;;;;;;;;;43.75;29.25;;;;;5.02;65.52;102875.59;5099754;27;49608;-78
2022/01/24 06:43:16;;;;;;;;;48.50;30.50;;;;;4.99;65.94;102877.19;5105659;27;45512;-78
2022/01/24 06:45:42;;;;;;;;;39.25;30.50;;;;;4.98;65.66;102872.75;5104068;27;58187;-80
2022/01/24 06:48:07;;;;;;;;;49.00;35.25;;;;;4.97;65.90;102872.69;5097875;27;45473;-78
2022/01/24 06:50:33;;;;;;;;;48.75;33.50;;;;;4.95;65.99;102875.19;5106419;27;56563;-78
2022/01/24 06:52:58;;;;;;;;;39.50;34.00;;;;;4.94;66.14;102865.50;5100374;27;45558;-78
2022/01/24 06:55:23;;;;;;;;;47.75;33.50;;;;;4.96;65.75;102873.47;5110013;27;58325;-78
2022/01/24 06:57:49;;;;;;;;;53.25;35.75;;;;;4.95;65.73;102877.81;5094333;27;51492;-78
2022/01/24 07:00:14;;;;;;;;;39.50;32.25;;;;;4.96;65.90;102868.25;5101780;27;45376;-77
2022/01/24 07:02:40;;;;;;;;;47.00;36.00;;;;;4.97;66.20;102872.69;5095545;27;45707;-78
2022/01/24 07:05:05;;;;;;;;;44.00;30.00;;;;;4.96;66.27;102881.34;5110693;27;49088;-78
2022/01/24 07:07:33;;;;;;;;;34.00;28.75;;;;;4.97;65.96;102880.53;5101954;27;46381;-79
2022/01/24 07:09:58;;;;;;;;;44.25;39.50;;;;;4.97;66.15;102884.03;5119501;27;45584;-77
2022/01/24 07:12:24;;;;;;;;;49.75;33.00;;;;;4.94;65.97;102868.13;5104740;27;45433;-81
2022/01/24 07:14:49;;;;;;;;;43.00;37.25;;;;;4.97;66.05;102883.16;5114970;27;45539;-81
2022/01/24 07:19:49;;;;;;;;;48.50;32.25;;;;;4.97;65.82;102886.66;5104653;27;45490;-81
2022/01/24 07:22:15;;;;;;;;;43.50;33.00;;;;;4.98;65.95;102878.00;5101882;27;56316;-80
2022/01/24 07:24:40;;;;;;;;;40.75;30.50;;;;;4.88;66.79;102886.03;5104568;27;46594;-77
2022/01/24 07:27:06;;;;;;;;;39.75;32.25;;;;;4.68;66.96;102891.63;5100692;27;45550;-77
2022/01/24 07:29:31;;;;;;;;;25.50;22.75;;;;;4.46;67.15;102894.50;5107995;27;45568;-80
2022/01/24 07:31:56;;;;;;;;;51.00;38.50;;;;;4.19;68.09;102878.72;5107356;27;45544;-83
2022/01/24 07:34:22;;;;;;;;;48.00;37.75;;;;;4.03;69.04;102888.00;5103793;27;47244;-78
2022/01/24 07:36:47;;;;;;;;;45.00;36.25;;;;;3.84;70.54;102899.78;5108289;27;45458;-77
2022/01/24 07:39:13;;;;;;;;;48.50;34.50;;;;;3.73;70.88;102889.31;5111374;27;54967;-77
2022/01/24 07:41:46;;;;;;;;;46.00;33.75;;;;;3.59;71.39;102890.97;5102710;27;45639;-77
2022/01/24 07:44:12;;;;;;;;;48.25;33.00;;;;;3.50;71.56;102890.28;5097348;27;45798;-76
2022/01/24 07:46:37;;;;;;;;;39.25;32.50;;;;;3.57;70.21;102901.31;5108299;27;45241;-84
2022/01/24 07:49:03;;;;;;;;;42.50;30.00;;;;;3.63;69.52;102895.63;5089325;27;45504;-82
2022/01/24 07:51:29;;;;;;;;;47.75;34.50;;;;;3.78;70.24;102901.94;5109317;27;45829;-87
2022/01/24 07:53:54;;;;;;;;;40.75;32.25;;;;;3.88;69.64;102901.78;5077000;27;60062;-76
2022/01/24 07:56:19;;;;;;;;;49.25;36.25;;;;;3.98;69.18;102894.59;5106626;27;45500;-85
2022/01/24 07:58:45;;;;;;;;;51.00;37.50;;;;;4.06;69.03;102898.69;5103341;27;57059;-85
2022/01/24 08:01:14;;;;;;;;;36.25;26.50;;;;;4.18;69.13;102908.28;5095428;27;45480;-80
2022/01/24 08:03:40;;;;;;;;;47.50;38.50;;;;;4.25;68.81;102899.16;5105959;27;45810;-81
2022/01/24 08:06:05;;;;;;;;;47.00;34.00;;;;;4.32;68.50;102898.78;5103607;27;57786;-83
2022/01/24 08:08:31;;;;;;;;;53.25;35.50;;;;;4.39;68.08;102900.13;5106841;27;57244;-80
2022/01/24 08:10:56;;;;;;;;;47.50;33.50;;;;;4.44;68.48;102910.09;5110881;27;45524;-81
2022/01/24 08:13:22;;;;;;;;;56.75;39.75;;;;;4.49;68.39;102899.97;5107389;27;60859;-82
2022/01/24 08:15:47;;;;;;;;;54.25;40.25;;;;;4.56;67.66;102899.56;5104917;27;45528;-82
2022/01/24 08:18:14;;;;;;;;;42.50;34.25;;;;;4.59;68.27;102898.88;5103727;27;46159;-79
2022/01/24 08:20:41;;;;;;;;;43.00;34.00;;;;;4.64;68.08;102905.34;5112297;27;45544;-79
2022/01/24 08:23:08;;;;;;;;;51.25;40.75;;;;;4.61;67.64;102892.03;5101161;27;46597;-80
2022/01/24 08:25:33;;;;;;;;;49.00;41.00;;;;;4.70;67.62;102906.66;5108562;27;45872;-80
2022/01/24 08:27:59;;;;;;;;;43.50;31.50;;;;;4.76;67.62;102908.78;5106851;27;45418;-79
2022/01/24 08:30:25;;;;;;;;;47.00;37.00;;;;;4.81;67.59;102917.84;5102555;27;45547;-81
2022/01/24 08:32:50;;;;;;;;;42.50;34.00;;;;;4.85;67.69;102905.88;5090999;27;61922;-81
2022/01/24 08:35:17;;;;;;;;;37.50;33.25;;;;;4.88;67.52;102906.06;5100322;27;59850;-80
2022/01/24 08:37:42;;;;;;;;;45.25;29.25;;;;;4.91;67.59;102906.28;5214027;22;45377;-81
2022/01/24 08:40:09;;;;;;;;;46.25;35.00;;;;;4.94;67.47;102906.47;5098379;27;45655;-80
2022/01/24 08:47:27;;;;;;;;;47.00;37.75;;;;;5.08;67.12;102910.94;5100980;27;45385;-84
2022/01/24 08:49:53;;;;;;;;;59.00;39.50;;;;;5.14;66.99;102916.59;5106755;27;45554;-83
2022/01/24 08:52:18;;;;;;;;;43.75;36.00;;;;;5.16;66.96;102914.97;5088608;27;48297;-83
2022/01/24 08:54:44;;;;;;;;;49.00;32.75;;;;;5.20;67.47;102909.13;5103665;27;45505;-82
2022/01/24 08:57:09;;;;;;;;;50.25;38.75;;;;;5.24;66.87;102913.75;5123206;27;45734;-81
2022/01/24 08:59:37;;;;;;;;;48.75;37.25;;;;;5.28;66.62;102919.22;5123525;27;45562;-80
2022/01/24 09:02:03;;;;;;;;;50.50;39.75;;;;;5.26;66.82;102912.13;5095116;27;47124;-80
2022/01/24 09:04:28;;;;;;;;;53.50;39.00;;;;;5.35;66.89;102916.19;5105234;27;45435;-79
2022/01/24 09:06:54;;;;;;;;;52.50;39.75;;;;;5.37;67.15;102919.81;5081366;27;51545;-79
2022/01/24 09:09:20;;;;;;;;;45.00;39.25;;;;;5.39;66.57;102939.16;5084019;27;45627;-80
2022/01/24 09:11:45;;;;;;;;;42.50;35.50;;;;;5.41;66.94;102929.69;5106389;27;45803;-78
2022/01/24 09:14:11;;;;;;;;;39.75;39.00;;;;;5.43;67.04;102931.63;5123736;27;45834;-79
2022/01/24 09:16:36;;;;;;;;;59.00;43.75;;;;;5.43;66.71;102923.75;5104380;27;49967;-80
2022/01/24 09:19:03;;;;;;;;;56.25;42.00;;;;;5.50;67.09;102925.97;5108503;27;46019;-79
2022/01/24 09:21:28;;;;;;;;;53.25;39.00;;;;;5.52;67.12;102926.03;5124114;27;46598;-81
2022/01/24 09:23:54;;;;;;;;;41.50;30.75;;;;;5.57;66.52;102922.00;5108926;27;46436;-79
2022/01/24 09:26:19;;;;;;;;;55.00;42.50;;;;;5.59;66.49;102929.97;5117128;27;57333;-78
2022/01/24 09:28:45;;;;;;;;;54.25;35.75;;;;;5.64;66.53;102925.94;5098307;27;45523;-79
2022/01/24 09:31:10;;;;;;;;;56.50;38.50;;;;;5.63;66.84;102918.88;5096275;27;45977;-80
2022/01/24 09:33:36;;;;;;;;;52.50;42.00;;;;;5.70;66.72;102928.94;5102067;27;45504;-79
2022/01/24 09:36:02;;;;;;;;;56.75;38.75;;;;;5.73;66.34;102922.19;5114395;27;45619;-81
2022/01/24 09:38:29;;;;;;;;;48.50;39.75;;;;;5.77;66.52;102931.16;5098415;27;45580;-80
2022/01/24 09:40:56;;;;;;;;;57.25;41.00;;;;;5.80;66.35;102931.34;5120274;27;46679;-80
2022/01/24 09:43:21;;;;;;;;;51.00;42.25;;;;;5.84;66.39;102929.84;5098786;27;45435;-80
2022/01/24 09:45:46;;;;;;;;;49.25;39.00;;;;;5.87;66.19;102933.56;5121585;27;53544;-80
2022/01/24 09:48:12;;;;;;;;;42.00;34.25;;;;;5.88;66.39;102930.13;5101951;27;51970;-80
2022/01/24 09:50:37;;;;;;;;;44.00;38.50;;;;;5.94;66.28;102930.56;5117106;27;47065;-80
2022/01/24 09:53:03;;;;;;;;;55.25;40.00;;;;;5.95;66.41;102926.22;5117302;27;59747;-80
2022/01/24 09:55:28;;;;;;;;;53.50;41.75;;;;;6.02;66.11;102933.69;5118253;27;45503;-80
2022/01/24 09:57:54;;;;;;;;;60.75;41.75;;;;;6.07;66.18;102940.09;5117249;27;45641;-81
2022/01/24 10:00:22;;;;;;;;;52.00;39.50;;;;;6.11;66.39;102942.09;5081073;27;46174;-80
2022/01/24 10:02:49;;;;;;;;;67.00;51.25;;;;;6.15;65.83;102936.25;5100385;27;45566;-79
2022/01/24 10:05:18;;;;;;;;;43.50;38.00;;;;;6.19;66.00;102935.63;5105381;27;45492;-82
2022/01/24 10:07:57;;;;;;;;;56.50;41.25;;;;;6.21;65.67;102928.75;5121568;27;45511;-78
2022/01/24 10:10:51;;;;;;;;;49.00;41.75;;;;;6.27;65.54;102931.75;5109198;27;46881;-79
2022/01/24 10:16:33;;;;;;;;;52.00;39.00;;;;;6.34;65.70;102926.88;5121106;27;45504;-78
2022/01/24 10:19:16;;;;;;;;;50.50;39.75;;;;;6.35;65.72;102926.09;5120743;27;45582;-78
2022/01/24 10:21:47;;;;;;;;;57.75;41.50;;;;;6.42;65.50;102931.81;5117664;27;46876;-78
2022/01/24 10:24:37;;;;;;;;;55.25;39.50;;;;;6.46;65.53;102925.94;5124343;27;45622;-78
2022/01/24 10:27:32;;;;;;;;;43.50;36.00;;;;;6.50;65.47;102927.94;5094331;27;45547;-79
2022/01/24 10:30:03;;;;;;;;;51.50;39.50;;;;;6.56;65.43;102922.16;5097893;27;45407;-79
2022/01/24 10:32:35;;;;;;;;;49.75;38.25;;;;;6.57;65.35;102919.63;5085161;27;48613;-78
2022/01/24 10:35:38;;;;;;;;;56.50;39.75;;;;;6.63;65.46;102916.47;5118191;27;45507;-79
2022/01/24 10:41:09;;;;;;;;;61.00;43.00;;;;;6.69;65.13;102903.69;5097401;27;45465;-80
2022/01/24 10:43:36;;;;;;;;;51.50;39.25;;;;;6.78;65.18;102914.75;5088308;27;47764;-79
2022/01/24 10:46:02;;;;;;;;;60.00;40.50;;;;;6.82;65.14;102905.34;5120094;27;45414;-79
2022/01/24 10:48:31;;;;;;;;;53.25;41.00;;;;;6.87;65.03;102903.91;5118896;27;45558;-80
2022/01/24 10:51:15;;;;;;;;;48.00;38.75;;;;;6.87;64.94;102895.09;5120417;27;45477;-80
2022/01/24 10:53:50;;;;;;;;;60.50;42.00;;;;;6.96;65.05;102895.66;5085109;27;46122;-79
2022/01/24 10:56:38;;;;;;;;;53.25;44.75;;;;;7.01;64.79;102891.56;5120465;27;45569;-80
2022/01/24 10:59:06;;;;;;;;;52.75;39.50;;;;;7.03;64.68;102897.81;5094307;27;45536;-78
2022/01/24 11:01:32;;;;;;;;;58.00;41.00;;;;;7.12;64.69;102898.34;5119340;27;45618;-82
2022/01/24 11:04:04;;;;;;;;;42.75;37.50;;;;;7.10;64.55;102881.63;5116194;27;46678;-83
2022/01/24 11:06:32;;;;;;;;;46.50;38.25;;;;;7.22;64.75;102892.81;5079221;27;46227;-85
2022/01/24 11:09:19;;;;;;;;;40.75;33.75;;;;;7.30;64.53;102895.91;5091634;27;45591;-83
2022/01/24 11:11:44;;;;;;;;;57.00;42.25;;;;;7.33;64.31;102881.19;5116637;27;45674;-83
2022/01/24 11:14:13;;;;;;;;;46.75;41.25;;;;;7.40;64.39;102886.78;5096986;27;45562;-83
2022/01/24 11:16:38;;;;;;;;;59.25;41.00;;;;;7.40;64.28;102868.41;5097622;27;45346;-82
2022/01/24 11:21:52;;;;;;;;;50.25;41.00;;;;;7.49;63.89;102861.94;5096905;27;45348;-79
2022/01/24 11:24:22;;;;;;;;;52.75;39.25;;;;;7.56;63.98;102878.97;5061103;27;48011;-81
2022/01/24 11:26:47;;;;;;;;;58.50;41.00;;;;;7.61;63.90;102873.13;5112391;27;45695;-87
2022/01/24 11:29:13;;;;;;;;;47.00;41.00;;;;;7.67;63.86;102867.34;5067202;27;45418;-77
2022/01/24 11:31:41;;;;;;;;;51.50;39.50;;;;;7.73;63.65;102880.81;5116006;27;45443;-82
2022/01/24 11:34:12;;;;;;;;;47.00;35.50;;;;;7.75;63.69;102858.13;5079948;27;47985;-78
2022/01/24 11:36:38;;;;;;;;;46.50;39.50;;;;;7.84;63.46;102861.28;5097712;27;45457;-81
2022/01/24 11:39:04;;;;;;;;;43.75;35.50;;;;;7.87;63.28;102858.78;5119182;27;45513;-81
2022/01/24 11:41:34;;;;;;;;;48.00;37.25;;;;;7.91;63.22;102849.34;5104082;27;45682;-81
2022/01/24 11:44:11;;;;;;;;;41.00;36.00;;;;;7.97;62.90;102854.03;5097760;27;47903;-83
2022/01/24 11:46:52;;;;;;;;;52.25;36.75;;;;;8.04;62.97;102858.81;5097045;27;45694;-79
2022/01/24 11:49:32;;;;;;;;;51.00;37.75;;;;;7.97;62.72;102825.09;5122435;27;45361;-79
2022/01/24 11:52:01;;;;;;;;;43.75;36.75;;;;;8.12;62.60;102842.63;5114712;27;45560;-79
2022/01/24 11:57:42;;;;;;;;;47.25;39.25;;;;;8.14;62.64;102829.53;5118644;27;45487;-78
2022/01/24 12:00:07;;;;;;;;;52.00;41.25;;;;;8.25;62.47;102852.06;5119236;27;45607;-78
2022/01/24 12:02:52;;;;;;;;;49.00;37.25;;;;;8.26;62.72;102851.25;5125440;27;45480;-77
2022/01/24 12:05:25;;;;;;;;;45.75;37.00;;;;;8.31;62.31;102830.41;5115527;27;46696;-78
2022/01/24 12:07:52;;;;;;;;;45.00;37.00;;;;;8.37;62.42;102839.59;5097165;27;45479;-77
2022/01/24 12:10:24;;;;;;;;;48.50;38.50;;;;;8.43;62.25;102848.63;5120833;27;45453;-77
2022/01/24 12:12:51;;;;;;;;;50.00;39.00;;;;;8.42;60.58;102831.03;5130505;27;45262;-76
2022/01/24 12:15:41;;;;;;;;;55.75;41.50;;;;;8.49;61.61;102843.69;5133606;27;46481;-77
2022/01/24 12:18:17;;;;;;;;;51.75;42.00;;;;;8.48;61.55;102834.88;5122432;27;45392;-78
2022/01/24 12:20:42;;;;;;;;;37.00;32.00;;;;;8.56;61.77;102845.78;5124560;27;45493;-77
2022/01/24 12:23:16;;;;;;;;;45.75;37.50;;;;;8.60;61.92;102848.66;5132059;27;45407;-77
2022/01/24 12:25:57;;;;;;;;;44.25;37.50;;;;;8.65;61.58;102838.38;5125192;27;45395;-76
2022/01/24 12:28:24;;;;;;;;;52.75;39.75;;;;;8.61;61.32;102826.78;5130601;27;45717;-78
2022/01/24 12:31:04;;;;;;;;;49.75;37.50;;;;;8.68;60.88;102838.50;5126815;27;45549;-77
2022/01/24 12:33:36;;;;;;;;;56.50;41.25;;;;;8.74;61.11;102837.94;5120041;27;45774;-77
2022/01/24 12:36:05;;;;;;;;;53.50;42.00;;;;;8.76;60.83;102838.91;5134841;27;47068;-77
2022/01/24 12:38:44;;;;;;;;;43.00;37.25;;;;;8.75;61.18;102835.38;5133661;27;45607;-77
2022/01/24 12:41:35;;;;;;;;;58.50;39.25;;;;;8.72;61.07;102829.94;5135011;27;45445;-77
2022/01/24 12:46:29;;;;;;;;;36.75;30.00;;;;;8.78;60.87;102826.72;5108432;27;46406;-78
2022/01/24 12:48:56;;;;;;;;;39.25;34.50;;;;;8.83;61.10;102830.47;5132662;27;45367;-77
2022/01/24 12:51:22;;;;;;;;;45.00;33.00;;;;;8.83;61.02;102828.75;5135927;27;45371;-77
2022/01/24 12:53:48;;;;;;;;;43.25;37.25;;;;;8.83;60.66;102826.13;5111845;27;45405;-78
2022/01/24 12:56:15;;;;;;;;;43.25;36.50;;;;;8.76;60.07;102802.94;5109448;27;47712;-77
2022/01/24 12:58:46;;;;;;;;;44.25;36.25;;;;;8.81;60.31;102818.97;5121169;27;45512;-77
2022/01/24 13:01:23;;;;;;;;;57.00;37.50;;;;;8.83;60.44;102823.47;5116383;27;45390;-77
2022/01/24 13:03:54;;;;;;;;;45.00;32.50;;;;;8.84;60.77;102817.41;5122076;27;45608;-77
2022/01/24 13:06:20;;;;;;;;;49.00;39.25;;;;;8.82;60.76;102819.06;5117150;27;46863;-79
2022/01/24 13:08:59;;;;;;;;;49.75;37.50;;;;;8.86;60.88;102818.38;5105502;27;45502;-80
2022/01/24 13:11:27;;;;;;;;;46.50;37.00;;;;;8.87;60.64;102822.81;5118983;27;45469;-78
2022/01/24 13:14:10;;;;;;;;;47.00;36.25;;;;;8.89;60.54;102817.63;5117106;27;46552;-77
2022/01/24 13:22:16;;;;;;;;;54.50;41.50;;;;;8.86;60.67;102806.94;5113776;27;45746;-79
2022/01/24 13:25:01;;;;;;;;;44.50;37.00;;;;;8.83;60.81;102788.34;5118927;27;45583;-79
2022/01/24 13:27:35;;;;;;;;;49.00;38.75;;;;;8.86;60.50;102807.84;5102067;27;46875;-80